createdAt,value
2023-02-13T00:00:00.181Z,11.30
2023-02-13T00:02:30.906Z,11.27
2023-02-13T00:05:01.604Z,11.28
2023-02-13T00:07:31.906Z,11.28
2023-02-13T00:10:01.951Z,11.26
2023-02-13T00:12:33.444Z,11.21
2023-02-13T00:15:03.059Z,11.10
2023-02-13T00:17:32.322Z,11.20
2023-02-13T00:20:02.056Z,11.23
2023-02-13T00:22:32.579Z,11.29
2023-02-13T00:25:01.540Z,11.26
2023-02-13T00:27:32.808Z,11.10
2023-02-13T00:30:01.613Z,11.20
2023-02-13T00:32:31.957Z,11.25
2023-02-13T00:35:01.153Z,11.23
2023-02-13T00:37:30.901Z,11.27
2023-02-13T00:40:01.035Z,11.27
2023-02-13T00:42:33.138Z,11.17
2023-02-13T00:45:02.339Z,11.22
2023-02-13T00:47:33.326Z,11.25
2023-02-13T00:50:02.484Z,11.26
2023-02-13T00:52:32.153Z,11.20
2023-02-13T00:55:02.335Z,10.93
2023-02-13T00:57:34.626Z,10.95
2023-02-13T01:00:04.233Z,10.83
2023-02-13T01:02:36.464Z,11.06
2023-02-13T01:05:07.276Z,11.01
2023-02-13T01:07:38.808Z,11.05
2023-02-13T01:10:11.988Z,10.97
2023-02-13T01:12:42.880Z,11.11
2023-02-13T01:15:13.321Z,10.86
2023-02-13T01:17:43.400Z,10.76
2023-02-13T01:20:15.778Z,10.96
2023-02-13T01:22:47.994Z,10.80
2023-02-13T01:25:18.884Z,11.01
2023-02-13T01:27:49.759Z,11.04
2023-02-13T01:30:21.007Z,10.86
2023-02-13T01:32:51.715Z,11.00
2023-02-13T01:35:22.056Z,11.01
2023-02-13T01:37:50.906Z,11.03
2023-02-13T01:40:20.588Z,10.93
2023-02-13T01:42:51.214Z,11.00
2023-02-13T01:45:29.665Z,10.97
2023-02-13T01:48:06.076Z,10.97
2023-02-13T01:50:44.985Z,10.91
2023-02-13T01:53:21.819Z,10.90
2023-02-13T01:55:55.974Z,10.93
2023-02-13T01:58:35.518Z,10.93
2023-02-13T02:01:07.586Z,10.87
2023-02-13T02:03:41.770Z,10.92
2023-02-13T02:06:18.063Z,10.95
2023-02-13T02:08:52.029Z,10.96
2023-02-13T02:11:36.060Z,10.89
2023-02-13T02:14:07.662Z,10.94
2023-02-13T02:16:36.514Z,10.95
2023-02-13T02:19:13.669Z,10.93
2023-02-13T02:22:38.459Z,10.87
2023-02-13T02:25:51.950Z,10.90
2023-02-13T02:29:33.254Z,10.74
2023-02-13T02:32:39.901Z,10.80
2023-02-13T02:35:18.520Z,10.82
2023-02-13T02:38:09.853Z,10.86
2023-02-13T02:41:00.036Z,10.87
2023-02-13T02:43:50.136Z,10.87
2023-02-13T02:46:26.341Z,10.82
2023-02-13T02:49:25.058Z,10.84
2023-02-13T02:52:05.237Z,10.85
2023-02-13T02:55:17.682Z,10.81
2023-02-13T02:58:09.555Z,10.82
2023-02-13T03:01:01.450Z,10.69
2023-02-13T03:03:50.570Z,10.82
2023-02-13T03:06:28.806Z,10.81
2023-02-13T03:09:20.276Z,10.82
2023-02-13T03:12:42.970Z,10.86
2023-02-13T03:15:13.542Z,10.74
2023-02-13T03:17:59.778Z,10.79
2023-02-13T03:21:01.367Z,10.83
2023-02-13T03:23:46.782Z,10.88
2023-02-13T03:26:50.844Z,10.82
2023-02-13T03:29:57.604Z,10.82
2023-02-13T03:32:31.387Z,10.78
2023-02-13T03:35:34.703Z,10.79
2023-02-13T03:38:13.414Z,10.59
2023-02-13T03:41:23.644Z,10.71
2023-02-13T03:44:03.859Z,10.76
2023-02-13T03:46:38.421Z,10.75
2023-02-13T03:49:29.536Z,10.75
2023-02-13T03:52:05.176Z,10.80
2023-02-13T03:55:02.470Z,10.77
2023-02-13T03:57:55.512Z,10.42
2023-02-13T04:00:28.461Z,10.75
2023-02-13T04:03:08.109Z,10.69
2023-02-13T04:05:44.585Z,10.85
2023-02-13T04:08:14.699Z,10.86
2023-02-13T04:10:58.891Z,10.74
2023-02-13T04:13:41.836Z,10.78
2023-02-13T04:16:21.278Z,10.81
2023-02-13T04:18:54.363Z,10.85
2023-02-13T04:21:28.161Z,10.84
2023-02-13T04:23:58.244Z,10.73
2023-02-13T04:26:31.917Z,10.84
2023-02-13T04:29:02.688Z,10.90
2023-02-13T04:31:32.461Z,10.89
2023-02-13T04:34:02.197Z,10.88
2023-02-13T04:36:32.330Z,10.87
2023-02-13T04:39:02.005Z,10.92
2023-02-13T04:41:32.083Z,10.27
2023-02-13T04:44:02.942Z,10.68
2023-02-13T04:46:37.169Z,10.78
2023-02-13T04:49:06.484Z,10.56
2023-02-13T04:51:36.068Z,10.79
2023-02-13T04:54:06.576Z,10.77
2023-02-13T04:56:36.050Z,10.85
2023-02-13T04:59:06.670Z,10.90
2023-02-13T05:01:38.456Z,10.90
2023-02-13T05:04:09.154Z,10.92
2023-02-13T05:06:39.295Z,10.80
2023-02-13T05:09:08.261Z,10.90
2023-02-13T05:11:37.494Z,10.90
2023-02-13T05:14:12.061Z,10.93
2023-02-13T05:16:42.179Z,10.89
2023-02-13T05:19:14.353Z,10.91
2023-02-13T05:22:03.963Z,10.93
2023-02-13T05:24:32.916Z,10.92
2023-02-13T05:27:03.544Z,10.92
2023-02-13T05:29:37.661Z,10.92
2023-02-13T05:32:08.634Z,10.94
2023-02-13T05:34:38.246Z,10.82
2023-02-13T05:37:09.107Z,10.52
2023-02-13T05:39:40.198Z,10.76
2023-02-13T05:42:11.514Z,10.70
2023-02-13T05:44:45.948Z,10.78
2023-02-13T05:47:17.313Z,10.85
2023-02-13T05:49:54.534Z,10.83
2023-02-13T05:52:25.140Z,10.85
2023-02-13T05:54:55.218Z,10.80
2023-02-13T05:57:24.886Z,10.90
2023-02-13T05:59:55.978Z,10.92
2023-02-13T06:02:25.361Z,10.96
2023-02-13T06:04:54.904Z,10.97
2023-02-13T06:07:27.150Z,10.50
2023-02-13T06:09:58.428Z,10.85
2023-02-13T06:12:32.400Z,10.93
2023-02-13T06:15:04.002Z,10.87
2023-02-13T06:17:33.487Z,10.98
2023-02-13T06:20:09.562Z,10.83
2023-02-13T06:22:40.241Z,10.98
2023-02-13T06:25:10.491Z,10.46
2023-02-13T06:27:42.220Z,10.69
2023-02-13T06:30:18.087Z,10.83
2023-02-13T06:32:49.612Z,10.85
2023-02-13T06:35:21.181Z,10.70
2023-02-13T06:37:54.088Z,10.57
2023-02-13T06:40:24.913Z,10.85
2023-02-13T06:42:54.304Z,10.85
2023-02-13T06:45:24.821Z,10.87
2023-02-13T06:47:53.709Z,10.79
2023-02-13T06:50:25.370Z,10.52
2023-02-13T06:52:56.512Z,10.72
2023-02-13T06:58:17.530Z,10.64
2023-02-13T07:00:50.271Z,10.59
2023-02-13T07:03:19.308Z,10.81
2023-02-13T07:05:52.074Z,10.86
2023-02-13T07:08:26.199Z,10.81
2023-02-13T07:10:58.419Z,10.82
2023-02-13T07:13:30.070Z,10.64
2023-02-13T07:16:05.654Z,10.70
2023-02-13T07:18:37.632Z,10.85
2023-02-13T07:21:09.851Z,10.93
2023-02-13T07:23:39.020Z,10.90
2023-02-13T07:26:11.609Z,10.88
2023-02-13T07:28:47.642Z,10.96
2023-02-13T07:31:20.928Z,10.99
2023-02-13T07:33:51.853Z,11.06
2023-02-13T07:36:28.632Z,11.04
2023-02-13T07:38:57.960Z,11.00
2023-02-13T07:41:27.779Z,11.07
2023-02-13T07:44:00.535Z,11.08
2023-02-13T07:46:32.191Z,11.15
2023-02-13T07:49:02.727Z,11.18
2023-02-13T07:51:36.810Z,11.12
2023-02-13T07:54:06.773Z,11.21
2023-02-13T07:56:36.273Z,11.22
2023-02-13T07:59:06.923Z,11.29
2023-02-13T08:01:38.425Z,11.28
2023-02-13T08:04:14.161Z,11.40
2023-02-13T08:06:44.045Z,11.22
2023-02-13T08:09:41.007Z,11.29
2023-02-13T08:12:12.283Z,11.49
2023-02-13T08:14:45.369Z,11.34
2023-02-13T08:17:17.342Z,11.29
2023-02-13T08:19:46.228Z,11.45
2023-02-13T08:22:19.133Z,11.56
2023-02-13T08:24:50.650Z,11.51
2023-02-13T08:27:20.594Z,11.62
2023-02-13T08:29:54.771Z,11.66
2023-02-13T08:32:26.189Z,11.60
2023-02-13T08:34:59.611Z,11.77
2023-02-13T08:37:29.621Z,11.62
2023-02-13T08:40:00.793Z,11.72
2023-02-13T08:42:31.579Z,11.81
2023-02-13T08:45:02.272Z,11.88
2023-02-13T08:47:36.222Z,11.72
2023-02-13T08:50:07.120Z,11.68
2023-02-13T08:52:36.615Z,11.63
2023-02-13T08:55:07.849Z,11.66
2023-02-13T08:57:38.391Z,11.78
2023-02-13T09:00:11.155Z,11.71
2023-02-13T09:02:43.548Z,11.85
2023-02-13T09:05:13.342Z,11.90
2023-02-13T09:07:43.377Z,12.15
2023-02-13T09:10:15.424Z,12.08
2023-02-13T09:12:47.624Z,12.22
2023-02-13T09:15:21.186Z,12.01
2023-02-13T09:17:52.225Z,11.80
2023-02-13T09:20:22.327Z,12.05
2023-02-13T09:22:51.240Z,12.26
2023-02-13T09:25:22.012Z,11.97
2023-02-13T09:27:51.506Z,11.92
2023-02-13T09:30:26.595Z,12.04
2023-02-13T09:32:57.853Z,12.34
2023-02-13T09:35:29.412Z,12.29
2023-02-13T09:38:03.616Z,12.19
2023-02-13T09:40:40.406Z,12.23
2023-02-13T09:43:18.284Z,12.50
2023-02-13T09:45:50.745Z,12.20
2023-02-13T09:48:31.435Z,12.53
2023-02-13T09:51:03.503Z,12.31
2023-02-13T09:53:33.437Z,12.43
2023-02-13T09:56:19.443Z,12.16
2023-02-13T09:58:50.977Z,12.05
2023-02-13T10:01:29.173Z,12.81
2023-02-13T10:04:33.833Z,12.39
2023-02-13T10:07:41.394Z,12.72
2023-02-13T10:10:30.267Z,12.94
2023-02-13T10:13:18.042Z,12.88
2023-02-13T10:15:55.487Z,12.89
2023-02-13T10:18:32.210Z,12.77
2023-02-13T10:21:06.305Z,12.93
2023-02-13T10:23:43.913Z,13.10
2023-02-13T10:26:20.727Z,12.98
2023-02-13T10:29:11.401Z,13.22
2023-02-13T10:31:49.071Z,13.20
2023-02-13T10:34:19.321Z,13.70
2023-02-13T10:36:50.132Z,13.16
2023-02-13T10:39:29.022Z,13.37
2023-02-13T10:42:07.901Z,13.74
2023-02-13T10:44:53.578Z,12.85
2023-02-13T10:47:35.457Z,13.57
2023-02-13T10:50:15.473Z,13.16
2023-02-13T10:52:58.357Z,12.76
2023-02-13T10:55:53.648Z,12.85
2023-02-13T10:58:31.548Z,12.66
2023-02-13T11:01:08.344Z,13.09
2023-02-13T11:03:37.167Z,12.94
2023-02-13T11:06:14.002Z,13.16
2023-02-13T11:08:48.943Z,13.28
2023-02-13T11:11:35.797Z,13.29
2023-02-13T11:14:18.443Z,13.46
2023-02-13T11:16:57.272Z,12.95
2023-02-13T11:19:34.143Z,13.83
2023-02-13T11:22:10.860Z,13.69
2023-02-13T11:24:44.320Z,13.53
2023-02-13T11:27:15.020Z,13.84
2023-02-13T11:29:58.958Z,13.05
2023-02-13T11:32:32.045Z,13.41
2023-02-13T11:35:28.357Z,13.33
2023-02-13T11:38:21.071Z,13.88
2023-02-13T11:41:04.708Z,14.50
2023-02-13T11:43:39.401Z,14.47
2023-02-13T11:46:18.405Z,14.01
2023-02-13T11:49:01.504Z,13.49
2023-02-13T11:51:46.868Z,14.53
2023-02-13T11:54:41.452Z,14.48
2023-02-13T11:57:24.700Z,14.17
2023-02-13T11:59:55.023Z,15.08
2023-02-13T12:02:26.406Z,14.73
2023-02-13T12:05:16.328Z,14.72
2023-02-13T12:07:47.710Z,14.90
2023-02-13T12:10:26.561Z,15.45
2023-02-13T12:12:59.541Z,14.76
2023-02-13T12:15:31.463Z,14.08
2023-02-13T12:18:12.355Z,14.38
2023-02-13T12:20:54.323Z,14.37
2023-02-13T12:23:35.262Z,13.90
2023-02-13T12:26:24.280Z,14.36
2023-02-13T12:29:34.308Z,14.33
2023-02-13T12:32:15.075Z,15.76
2023-02-13T12:35:33.241Z,14.64
2023-02-13T12:38:09.949Z,14.57
2023-02-13T12:41:21.034Z,14.88
2023-02-13T12:44:30.115Z,15.48
2023-02-13T12:47:16.547Z,14.95
2023-02-13T12:50:25.065Z,15.16
2023-02-13T12:53:30.472Z,14.67
2023-02-13T12:56:25.864Z,15.35
2023-02-13T12:59:11.612Z,14.93
2023-02-13T13:02:11.526Z,14.73
2023-02-13T13:04:56.107Z,15.25
2023-02-13T13:07:47.705Z,15.23
2023-02-13T13:10:43.155Z,15.19
2023-02-13T13:13:26.349Z,15.46
2023-02-13T13:16:09.430Z,16.16
2023-02-13T13:18:57.128Z,15.74
2023-02-13T13:21:47.610Z,15.27
2023-02-13T13:24:35.121Z,15.45
2023-02-13T13:27:05.460Z,15.93
2023-02-13T13:29:45.788Z,15.60
2023-02-13T13:32:22.692Z,15.58
2023-02-13T13:34:52.092Z,16.49
2023-02-13T13:37:32.269Z,16.86
2023-02-13T13:40:07.589Z,16.04
2023-02-13T13:42:43.576Z,15.75
2023-02-13T13:45:28.627Z,15.79
2023-02-13T13:48:53.346Z,16.09
2023-02-13T13:51:22.795Z,15.46
2023-02-13T13:54:34.916Z,15.63
2023-02-13T13:57:12.632Z,16.00
2023-02-13T14:00:27.304Z,16.28
2023-02-13T14:03:35.910Z,16.06
2023-02-13T14:06:10.235Z,15.95
2023-02-13T14:09:30.064Z,16.21
2023-02-13T14:12:02.633Z,16.20
2023-02-13T14:14:55.887Z,16.07
2023-02-13T14:17:55.259Z,16.76
2023-02-13T14:20:45.537Z,16.16
2023-02-13T14:23:53.490Z,16.27
2023-02-13T14:26:37.267Z,16.02
2023-02-13T14:29:33.029Z,16.36
2023-02-13T14:32:24.332Z,15.60
2023-02-13T14:35:00.584Z,16.04
2023-02-13T14:37:40.449Z,16.21
2023-02-13T14:40:47.444Z,16.02
2023-02-13T14:43:37.322Z,15.87
2023-02-13T14:46:18.838Z,15.99
2023-02-13T14:48:54.440Z,16.42
2023-02-13T14:51:35.243Z,16.08
2023-02-13T14:54:18.885Z,15.99
2023-02-13T14:56:51.030Z,15.73
2023-02-13T14:59:24.101Z,15.85
2023-02-13T15:02:00.417Z,15.59
2023-02-13T15:04:36.815Z,15.65
2023-02-13T15:07:08.291Z,15.12
2023-02-13T15:09:42.733Z,15.44
2023-02-13T15:12:29.118Z,15.71
2023-02-13T15:14:57.710Z,15.61
2023-02-13T15:17:33.871Z,15.58
2023-02-13T15:20:21.797Z,15.91
2023-02-13T15:22:50.764Z,15.25
2023-02-13T15:25:30.635Z,15.93
2023-02-13T15:28:00.665Z,16.04
2023-02-13T15:30:30.827Z,15.27
2023-02-13T15:33:02.879Z,15.10
2023-02-13T15:35:34.723Z,16.04
2023-02-13T15:38:21.815Z,15.62
2023-02-13T15:40:53.621Z,16.06
2023-02-13T15:43:33.418Z,15.61
2023-02-13T15:46:06.369Z,15.71
2023-02-13T15:48:36.955Z,16.14
2023-02-13T15:51:06.586Z,16.15
2023-02-13T15:53:38.931Z,15.21
2023-02-13T15:56:15.911Z,15.90
2023-02-13T15:58:44.985Z,15.77
2023-02-13T16:01:18.201Z,16.17
2023-02-13T16:03:50.296Z,15.55
2023-02-13T16:06:22.228Z,15.97
2023-02-13T16:08:55.223Z,16.13
2023-02-13T16:11:38.298Z,15.63
2023-02-13T16:14:21.834Z,16.08
2023-02-13T16:17:07.005Z,15.33
2023-02-13T16:19:57.149Z,15.74
2023-02-13T16:22:37.153Z,15.22
2023-02-13T16:25:22.632Z,15.15
2023-02-13T16:27:57.754Z,15.22
2023-02-13T16:30:38.494Z,14.55
2023-02-13T16:33:29.801Z,15.07
2023-02-13T16:36:00.856Z,14.57
2023-02-13T16:38:35.894Z,14.44
2023-02-13T16:41:08.078Z,14.38
2023-02-13T16:43:45.357Z,14.62
2023-02-13T16:46:25.919Z,14.41
2023-02-13T16:49:17.797Z,14.30
2023-02-13T16:51:52.857Z,14.18
2023-02-13T16:54:38.236Z,14.08
2023-02-13T16:57:23.886Z,14.13
2023-02-13T17:00:09.761Z,14.04
2023-02-13T17:02:39.994Z,14.04
2023-02-13T17:05:22.714Z,13.97
2023-02-13T17:07:53.480Z,13.86
2023-02-13T17:10:27.290Z,13.72
2023-02-13T17:12:58.301Z,13.59
2023-02-13T17:15:31.391Z,13.54
2023-02-13T17:18:01.014Z,13.46
2023-02-13T17:20:33.286Z,13.41
2023-02-13T17:23:04.851Z,13.32
2023-02-13T17:25:35.742Z,13.24
2023-02-13T17:28:14.386Z,13.13
2023-02-13T17:30:47.767Z,13.04
2023-02-13T17:33:23.169Z,12.90
2023-02-13T17:35:51.933Z,12.92
2023-02-13T17:38:20.910Z,12.87
2023-02-13T17:40:50.382Z,12.78
2023-02-13T17:43:20.726Z,12.40
2023-02-13T17:45:51.558Z,12.45
2023-02-13T17:48:24.058Z,12.37
2023-02-13T17:50:53.252Z,12.33
2023-02-13T17:53:26.144Z,12.25
2023-02-13T17:55:55.356Z,12.17
2023-02-13T17:58:24.139Z,12.05
2023-02-13T18:00:54.431Z,12.02
2023-02-13T18:03:23.197Z,11.98
2023-02-13T18:05:51.742Z,11.94
2023-02-13T18:08:20.241Z,11.83
2023-02-13T18:10:49.019Z,11.73
2023-02-13T18:13:17.668Z,11.65
2023-02-13T18:15:46.874Z,11.51
2023-02-13T18:18:18.923Z,11.49
2023-02-13T18:20:47.719Z,11.43
2023-02-13T18:23:16.291Z,11.38
2023-02-13T18:25:44.882Z,11.20
2023-02-13T18:28:14.299Z,11.15
2023-02-13T18:30:43.995Z,11.10
2023-02-13T18:33:13.025Z,11.07
2023-02-13T18:35:43.923Z,11.01
2023-02-13T18:38:13.805Z,10.94
2023-02-13T18:40:42.992Z,10.85
2023-02-13T18:43:15.756Z,10.78
2023-02-13T18:45:46.778Z,10.74
2023-02-13T18:48:15.954Z,10.63
2023-02-13T18:50:46.099Z,10.57
2023-02-13T18:53:14.982Z,10.50
2023-02-13T18:55:43.634Z,10.38
2023-02-13T18:58:12.358Z,10.23
2023-02-13T19:00:40.892Z,10.14
2023-02-13T19:03:09.409Z,10.14
2023-02-13T19:05:42.685Z,10.10
2023-02-13T19:08:12.997Z,10.08
2023-02-13T19:10:41.792Z,10.01
2023-02-13T19:13:10.338Z,9.96
2023-02-13T19:15:38.917Z,9.85
2023-02-13T19:18:08.001Z,9.85
2023-02-13T19:20:38.521Z,9.78
2023-02-13T19:23:11.507Z,9.74
2023-02-13T19:25:40.322Z,9.67
2023-02-13T19:28:09.191Z,9.57
2023-02-13T19:30:38.977Z,9.59
2023-02-13T19:33:07.896Z,9.40
2023-02-13T19:35:37.017Z,9.43
2023-02-13T19:38:05.988Z,9.43
2023-02-13T19:40:39.285Z,9.36
2023-02-13T19:43:08.165Z,9.32
2023-02-13T19:45:38.230Z,9.32
2023-02-13T19:48:09.810Z,9.23
2023-02-13T19:50:39.241Z,9.24
2023-02-13T19:53:08.913Z,9.14
2023-02-13T19:55:39.070Z,9.18
2023-02-13T19:58:07.948Z,9.12
2023-02-13T20:00:36.754Z,9.08
2023-02-13T20:03:05.999Z,8.86
2023-02-13T20:05:41.088Z,8.83
2023-02-13T20:08:09.725Z,8.81
2023-02-13T20:10:46.902Z,8.80
2023-02-13T20:13:22.825Z,8.89
2023-02-13T20:15:55.648Z,8.81
2023-02-13T20:18:24.365Z,8.76
2023-02-13T20:20:53.057Z,8.74
2023-02-13T20:23:21.665Z,8.67
2023-02-13T20:25:51.659Z,8.66
2023-02-13T20:28:20.576Z,8.43
2023-02-13T20:30:49.213Z,8.51
2023-02-13T20:33:19.168Z,8.55
2023-02-13T20:35:48.124Z,8.49
2023-02-13T20:38:17.235Z,8.39
2023-02-13T20:40:46.773Z,8.41
2023-02-13T20:43:17.660Z,8.34
2023-02-13T20:45:46.393Z,8.28
2023-02-13T20:48:15.064Z,8.21
2023-02-13T20:50:43.982Z,8.23
2023-02-13T20:53:13.136Z,8.21
2023-02-13T20:55:43.254Z,8.11
2023-02-13T20:58:11.738Z,8.11
2023-02-13T21:00:43.369Z,8.08
2023-02-13T21:03:14.186Z,8.05
2023-02-13T21:05:42.917Z,7.99
2023-02-13T21:08:11.970Z,7.99
2023-02-13T21:10:40.671Z,7.95
2023-02-13T21:13:10.456Z,7.86
2023-02-13T21:15:41.206Z,7.85
2023-02-13T21:18:09.895Z,7.83
2023-02-13T21:20:41.832Z,7.81
2023-02-13T21:23:10.616Z,7.74
2023-02-13T21:25:39.150Z,7.74
2023-02-13T21:28:07.965Z,7.72
2023-02-13T21:30:38.204Z,7.57
2023-02-13T21:33:10.795Z,7.62
2023-02-13T21:35:39.740Z,7.64
2023-02-13T21:38:08.863Z,7.61
2023-02-13T21:40:37.943Z,7.54
2023-02-13T21:43:07.213Z,7.52
2023-02-13T21:45:36.994Z,7.53
2023-02-13T21:48:07.862Z,7.53
2023-02-13T21:50:36.345Z,7.51
2023-02-13T21:53:07.417Z,7.47
2023-02-13T21:55:36.316Z,7.35
2023-02-13T21:58:04.951Z,7.38
2023-02-13T22:00:34.063Z,7.33
2023-02-13T22:03:02.814Z,7.28
2023-02-13T22:05:33.945Z,7.28
2023-02-13T22:08:11.932Z,7.32
2023-02-13T22:10:41.063Z,7.21
2023-02-13T22:13:10.243Z,7.27
2023-02-13T22:15:39.352Z,7.23
2023-02-13T22:18:08.128Z,7.17
2023-02-13T22:20:40.026Z,7.08
2023-02-13T22:23:08.656Z,7.13
2023-02-13T22:25:37.247Z,7.14
2023-02-13T22:28:06.433Z,7.09
2023-02-13T22:30:37.682Z,7.10
2023-02-13T22:33:06.605Z,7.06
2023-02-13T22:35:41.189Z,7.05
2023-02-13T22:38:10.978Z,7.08
2023-02-13T22:40:41.366Z,7.01
2023-02-13T22:43:12.708Z,6.82
2023-02-13T22:45:41.481Z,6.86
2023-02-13T22:48:10.569Z,6.87
2023-02-13T22:50:41.236Z,6.90
2023-02-13T22:53:09.970Z,6.83
2023-02-13T22:55:38.556Z,6.86
2023-02-13T22:58:10.535Z,6.85
2023-02-13T23:00:39.220Z,6.82
2023-02-13T23:03:07.927Z,6.80
2023-02-13T23:05:39.663Z,6.78
2023-02-13T23:08:14.733Z,6.74
2023-02-13T23:10:43.813Z,6.76
2023-02-13T23:13:11.670Z,6.72
2023-02-13T23:15:40.726Z,6.68
2023-02-13T23:18:14.063Z,6.68
2023-02-13T23:20:43.448Z,6.63
2023-02-13T23:23:13.811Z,6.59
2023-02-13T23:25:42.596Z,6.52
2023-02-13T23:28:11.463Z,6.42
2023-02-13T23:30:41.497Z,6.46
2023-02-13T23:33:10.147Z,6.48
2023-02-13T23:35:38.927Z,6.47
2023-02-13T23:38:07.350Z,6.48
2023-02-13T23:40:37.785Z,6.43
2023-02-13T23:43:07.286Z,6.46
2023-02-13T23:45:35.949Z,6.38
2023-02-13T23:48:04.895Z,6.46
2023-02-13T23:50:34.332Z,6.36
2023-02-13T23:53:02.927Z,6.32
2023-02-13T23:55:31.823Z,6.33
2023-02-13T23:58:02.348Z,6.31
